createdAt,value
2023-06-01T00:00:20.248Z,95241.69
2023-06-01T00:02:48.291Z,95209.97
2023-06-01T00:05:16.502Z,95246.78
2023-06-01T00:07:44.760Z,95259.19
2023-06-01T00:10:14.201Z,95259.91
2023-06-01T00:12:43.466Z,95258.25
2023-06-01T00:15:11.983Z,95256.38
2023-06-01T00:17:40.270Z,95267.81
2023-06-01T00:20:10.157Z,95217.63
2023-06-01T00:22:40.042Z,95256.72
2023-06-01T00:25:09.936Z,95258.03
2023-06-01T00:27:39.857Z,95260.25
2023-06-01T00:30:09.286Z,95270.91
2023-06-01T00:32:37.392Z,95261.06
2023-06-01T00:35:06.430Z,95263.97
2023-06-01T00:37:35.261Z,95271.28
2023-06-01T00:40:03.614Z,95277.22
2023-06-01T00:42:32.123Z,95270.81
2023-06-01T00:45:02.005Z,95255.91
2023-06-01T00:47:30.183Z,95262.56
2023-06-01T00:49:58.322Z,95270.59
2023-06-01T00:52:27.048Z,95249.66
2023-06-01T00:54:55.397Z,95260.13
2023-06-01T00:57:27.724Z,95272.50
2023-06-01T00:59:56.224Z,95258.00
2023-06-01T01:02:25.985Z,95273.44
2023-06-01T01:04:57.233Z,95280.16
2023-06-01T01:07:34.534Z,95281.22
2023-06-01T01:10:12.855Z,95269.53
2023-06-01T01:12:49.656Z,95289.16
2023-06-01T01:15:24.067Z,95282.50
2023-06-01T01:18:02.767Z,95285.53
2023-06-01T01:20:35.418Z,95284.84
2023-06-01T01:23:19.634Z,95293.13
2023-06-01T01:26:17.697Z,95291.75
2023-06-01T01:28:51.106Z,95287.66
2023-06-01T01:31:21.560Z,95260.19
2023-06-01T01:33:52.530Z,95275.91
2023-06-01T01:36:21.032Z,95286.91
2023-06-01T01:38:50.088Z,95281.00
2023-06-01T01:41:18.294Z,95282.56
2023-06-01T01:43:48.201Z,95287.22
2023-06-01T01:46:27.345Z,95274.22
2023-06-01T01:49:07.120Z,95270.16
2023-06-01T01:51:40.424Z,95286.13
2023-06-01T01:54:10.841Z,95240.66
2023-06-01T01:56:39.960Z,95293.94
2023-06-01T01:59:09.938Z,95280.00
2023-06-01T02:01:41.848Z,95285.69
2023-06-01T02:04:10.242Z,95274.91
2023-06-01T02:06:39.052Z,95280.03
2023-06-01T02:09:08.852Z,95270.69
2023-06-01T02:11:37.563Z,95284.72
2023-06-01T02:14:06.152Z,95248.06
2023-06-01T02:16:36.180Z,95286.47
2023-06-01T02:19:04.436Z,95282.41
2023-06-01T02:21:33.259Z,95274.25
2023-06-01T02:24:05.856Z,95285.34
2023-06-01T02:26:34.354Z,95283.41
2023-06-01T02:29:03.823Z,95275.81
2023-06-01T02:31:32.103Z,95225.94
2023-06-01T02:34:01.818Z,95280.88
2023-06-01T02:36:30.777Z,95280.25
2023-06-01T02:38:59.328Z,95286.38
2023-06-01T02:41:27.759Z,95280.94
2023-06-01T02:43:55.959Z,95291.47
2023-06-01T02:46:24.483Z,95288.47
2023-06-01T02:48:54.005Z,95279.78
2023-06-01T02:51:23.532Z,95279.53
2023-06-01T02:53:52.065Z,95290.06
2023-06-01T02:56:20.750Z,95272.94
2023-06-01T02:58:48.816Z,95286.78
2023-06-01T03:01:17.410Z,95281.03
2023-06-01T03:03:46.150Z,95289.97
2023-06-01T03:06:14.608Z,95284.53
2023-06-01T03:08:44.076Z,95280.66
2023-06-01T03:11:12.401Z,95285.31
2023-06-01T03:13:40.591Z,95289.97
2023-06-01T03:16:08.684Z,95293.91
2023-06-01T03:18:39.113Z,95292.81
2023-06-01T03:21:07.815Z,95281.38
2023-06-01T03:23:36.074Z,95209.59
2023-06-01T03:26:06.050Z,95296.66
2023-06-01T03:28:34.181Z,95298.34
2023-06-01T03:31:02.911Z,95290.19
2023-06-01T03:33:31.697Z,95295.75
2023-06-01T03:35:59.807Z,95257.00
2023-06-01T03:38:27.994Z,95280.97
2023-06-01T03:40:56.634Z,95293.34
2023-06-01T03:43:26.242Z,95290.91
2023-06-01T03:45:54.426Z,95276.72
2023-06-01T03:48:22.819Z,95293.91
2023-06-01T03:50:51.129Z,95297.25
2023-06-01T03:53:19.619Z,95300.59
2023-06-01T03:55:49.523Z,95298.22
2023-06-01T03:58:20.669Z,95299.72
2023-06-01T04:00:51.089Z,95307.34
2023-06-01T04:03:22.774Z,95303.78
2023-06-01T04:05:52.597Z,95306.53
2023-06-01T04:08:22.983Z,95315.56
2023-06-01T04:10:51.353Z,95303.47
2023-06-01T04:13:19.674Z,95303.94
2023-06-01T04:15:49.850Z,95304.69
2023-06-01T04:18:18.151Z,95309.28
2023-06-01T04:20:46.208Z,95317.28
2023-06-01T04:23:14.517Z,95309.66
2023-06-01T04:25:45.402Z,95305.84
2023-06-01T04:28:13.910Z,95308.88
2023-06-01T04:30:42.149Z,95310.50
2023-06-01T04:33:11.705Z,95306.63
2023-06-01T04:35:39.869Z,95287.47
2023-06-01T04:38:10.238Z,95303.75
2023-06-01T04:40:38.307Z,95301.94
2023-06-01T04:43:08.328Z,95287.97
2023-06-01T04:45:39.678Z,95297.72
2023-06-01T04:48:09.990Z,95306.59
2023-06-01T04:50:40.052Z,95280.69
2023-06-01T04:53:08.174Z,95300.25
2023-06-01T04:55:36.493Z,95319.94
2023-06-01T04:58:06.226Z,95303.19
2023-06-01T05:00:34.688Z,95292.50
2023-06-01T05:03:04.165Z,95309.53
2023-06-01T05:05:32.596Z,95309.59
2023-06-01T05:08:02.280Z,95302.09
2023-06-01T05:10:30.404Z,95316.84
2023-06-01T05:12:58.482Z,95321.19
2023-06-01T05:15:28.627Z,95313.06
2023-06-01T05:17:56.846Z,95309.81
2023-06-01T05:20:24.940Z,95311.97
2023-06-01T05:22:53.078Z,95308.63
2023-06-01T05:25:22.633Z,95302.75
2023-06-01T05:27:50.655Z,95303.75
2023-06-01T05:30:18.666Z,95298.75
2023-06-01T05:32:47.062Z,95302.75
2023-06-01T05:35:15.368Z,95296.00
2023-06-01T05:37:45.433Z,95297.66
2023-06-01T05:40:15.379Z,95303.06
2023-06-01T05:42:44.872Z,95297.75
2023-06-01T05:45:12.994Z,95306.06
2023-06-01T05:47:41.086Z,95297.88
2023-06-01T05:50:09.641Z,95297.63
2023-06-01T05:52:37.783Z,95299.28
2023-06-01T05:55:07.213Z,95305.38
2023-06-01T05:57:35.310Z,95289.06
2023-06-01T06:00:09.422Z,95305.38
2023-06-01T06:02:37.616Z,95303.63
2023-06-01T06:05:07.169Z,95300.31
2023-06-01T06:07:35.367Z,95304.47
2023-06-01T06:10:03.652Z,95296.13
2023-06-01T06:12:32.457Z,95243.75
2023-06-01T06:15:01.752Z,95302.66
2023-06-01T06:17:32.360Z,95294.91
2023-06-01T06:20:01.134Z,95301.34
2023-06-01T06:22:29.214Z,95294.63
2023-06-01T06:24:57.600Z,95306.41
2023-06-01T06:27:25.852Z,95283.41
2023-06-01T06:29:54.248Z,95271.47
2023-06-01T06:32:22.669Z,95312.38
2023-06-01T06:34:52.423Z,95306.13
2023-06-01T06:37:20.866Z,95308.63
2023-06-01T06:39:49.175Z,95308.13
2023-06-01T06:42:17.936Z,95312.59
2023-06-01T06:44:46.266Z,95305.59
2023-06-01T06:47:16.855Z,95308.00
2023-06-01T06:49:45.377Z,95294.56
2023-06-01T06:52:14.987Z,95290.66
2023-06-01T06:54:43.052Z,95299.16
2023-06-01T06:57:11.784Z,95273.22
2023-06-01T06:59:39.843Z,95303.63
2023-06-01T07:02:08.486Z,95308.66
2023-06-01T07:04:36.911Z,95305.59
2023-06-01T07:07:05.763Z,95305.88
2023-06-01T07:09:35.683Z,95301.88
2023-06-01T07:12:03.705Z,95292.09
2023-06-01T07:14:31.768Z,95293.03
2023-06-01T07:16:59.925Z,95286.13
2023-06-01T07:19:33.957Z,95293.38
2023-06-01T07:22:02.593Z,95291.47
2023-06-01T07:24:31.004Z,95296.81
2023-06-01T07:27:01.193Z,95289.31
2023-06-01T07:29:29.589Z,95289.31
2023-06-01T07:31:59.174Z,95287.16
2023-06-01T07:34:29.277Z,95291.69
2023-06-01T07:37:15.342Z,95275.88
2023-06-01T07:39:45.024Z,95278.25
2023-06-01T07:42:16.676Z,95283.06
2023-06-01T07:44:46.249Z,95279.09
2023-06-01T07:47:14.784Z,95274.13
2023-06-01T07:49:42.900Z,95270.88
2023-06-01T07:52:11.820Z,95278.63
2023-06-01T07:54:40.025Z,95264.41
2023-06-01T07:57:09.487Z,95270.81
2023-06-01T07:59:40.483Z,95193.00
2023-06-01T08:02:08.910Z,95273.03
2023-06-01T08:04:39.024Z,95261.34
2023-06-01T08:07:09.934Z,95208.25
2023-06-01T08:09:39.551Z,95282.72
2023-06-01T08:12:09.245Z,95266.22
2023-06-01T08:14:38.985Z,95270.47
2023-06-01T08:17:08.584Z,95269.34
2023-06-01T08:19:37.729Z,95265.78
2023-06-01T08:22:08.395Z,95236.06
2023-06-01T08:24:37.401Z,95264.63
2023-06-01T08:27:19.004Z,95264.53
2023-06-01T08:29:49.517Z,95243.44
2023-06-01T08:32:19.492Z,95175.72
2023-06-01T08:34:48.339Z,95254.47
2023-06-01T08:37:18.060Z,95244.09
2023-06-01T08:39:46.875Z,95228.91
2023-06-01T08:42:22.223Z,95233.50
2023-06-01T08:44:56.690Z,95232.41
2023-06-01T08:47:27.484Z,95224.75
2023-06-01T08:49:56.243Z,95232.09
2023-06-01T08:52:30.221Z,95228.78
2023-06-01T08:55:00.416Z,95223.41
2023-06-01T08:57:29.725Z,95229.84
2023-06-01T09:00:00.550Z,95201.78
2023-06-01T09:02:29.623Z,95214.72
2023-06-01T09:04:57.773Z,95217.53
2023-06-01T09:07:26.563Z,95224.53
2023-06-01T09:09:54.722Z,95216.84
2023-06-01T09:12:27.041Z,95220.03
2023-06-01T09:15:12.153Z,95220.38
2023-06-01T09:17:41.365Z,95206.84
2023-06-01T09:20:15.066Z,95162.25
2023-06-01T09:22:44.872Z,95216.44
2023-06-01T09:25:15.468Z,95209.72
2023-06-01T09:27:48.173Z,95207.72
2023-06-01T09:30:19.806Z,95210.06
2023-06-01T09:32:52.364Z,95133.44
2023-06-01T09:35:39.937Z,95199.22
2023-06-01T09:38:08.151Z,95201.97
2023-06-01T09:40:36.687Z,95189.13
2023-06-01T09:43:05.057Z,95189.25
2023-06-01T09:45:34.877Z,95178.03
2023-06-01T09:48:19.835Z,95188.78
2023-06-01T09:50:48.411Z,95172.00
2023-06-01T09:53:18.327Z,95165.88
2023-06-01T09:56:00.740Z,95170.22
2023-06-01T09:58:30.078Z,95161.72
2023-06-01T10:01:05.114Z,95168.94
2023-06-01T10:03:33.563Z,95166.44
2023-06-01T10:06:03.718Z,95154.00
2023-06-01T10:08:34.069Z,95147.44
2023-06-01T10:11:02.188Z,95150.03
2023-06-01T10:13:32.646Z,95153.25
2023-06-01T10:16:02.886Z,95152.19
2023-06-01T10:18:32.196Z,95151.50
2023-06-01T10:21:01.276Z,95150.28
2023-06-01T10:23:31.633Z,95154.94
2023-06-01T10:26:07.493Z,95147.81
2023-06-01T10:28:38.104Z,95149.75
2023-06-01T10:31:39.484Z,95146.06
2023-06-01T10:34:10.654Z,95151.25
2023-06-01T10:37:16.687Z,95149.81
2023-06-01T10:39:46.028Z,95110.94
2023-06-01T10:42:39.962Z,95137.69
2023-06-01T10:45:38.653Z,95135.63
2023-06-01T10:48:11.377Z,95132.72
2023-06-01T10:50:40.574Z,95138.34
2023-06-01T10:53:31.493Z,95129.13
2023-06-01T10:56:23.385Z,95141.31
2023-06-01T11:01:45.004Z,95127.03
2023-06-01T11:04:15.983Z,95118.06
2023-06-01T11:06:45.585Z,95108.31
2023-06-01T11:09:17.144Z,95114.34
2023-06-01T11:12:03.779Z,95120.13
2023-06-01T11:14:34.989Z,95123.00
2023-06-01T11:17:30.157Z,95122.19
2023-06-01T11:20:06.223Z,95137.03
2023-06-01T11:22:39.978Z,95123.09
2023-06-01T11:25:10.506Z,95122.50
2023-06-01T11:27:38.851Z,95119.22
2023-06-01T11:30:08.252Z,95126.53
2023-06-01T11:32:42.946Z,95138.81
2023-06-01T11:35:24.101Z,95132.19
2023-06-01T11:37:57.025Z,95144.69
2023-06-01T11:40:27.493Z,95144.19
2023-06-01T11:42:58.048Z,95150.16
2023-06-01T11:45:28.503Z,95158.84
2023-06-01T11:47:56.768Z,95166.47
2023-06-01T11:50:28.485Z,95168.88
2023-06-01T11:52:59.533Z,95178.94
2023-06-01T11:55:27.690Z,95165.41
2023-06-01T11:57:55.920Z,95144.53
2023-06-01T12:00:24.523Z,95174.47
2023-06-01T12:03:08.156Z,95132.53
2023-06-01T12:05:44.411Z,95146.25
2023-06-01T12:08:15.738Z,95132.94
2023-06-01T12:10:46.294Z,95126.88
2023-06-01T12:13:14.903Z,95121.22
2023-06-01T12:15:43.303Z,95063.97
2023-06-01T12:18:11.916Z,95101.00
2023-06-01T12:20:43.616Z,95100.34
2023-06-01T12:23:17.827Z,95103.19
2023-06-01T12:25:52.768Z,95089.38
2023-06-01T12:28:22.513Z,95088.88
2023-06-01T12:30:51.105Z,95099.34
2023-06-01T12:33:35.872Z,95053.28
2023-06-01T12:36:07.466Z,95106.91
2023-06-01T12:38:39.169Z,95093.22
2023-06-01T12:41:10.912Z,95099.94
2023-06-01T12:43:39.407Z,95088.72
2023-06-01T12:46:08.373Z,95087.00
2023-06-01T12:48:38.622Z,95097.19
2023-06-01T12:51:09.419Z,95090.72
2023-06-01T12:53:37.735Z,95088.22
2023-06-01T12:56:06.081Z,95102.66
2023-06-01T12:58:34.605Z,95092.47
2023-06-01T13:01:02.960Z,95089.47
2023-06-01T13:03:31.848Z,95031.16
2023-06-01T13:06:01.328Z,95094.47
2023-06-01T13:08:31.322Z,95088.97
2023-06-01T13:10:59.330Z,95077.03
2023-06-01T13:13:28.272Z,95075.75
2023-06-01T13:15:56.687Z,95069.75
2023-06-01T13:18:25.659Z,95070.75
2023-06-01T13:20:54.115Z,95070.94
2023-06-01T13:23:22.367Z,95045.66
2023-06-01T13:25:52.052Z,95058.13
2023-06-01T13:28:20.554Z,95058.22
2023-06-01T13:30:49.117Z,95059.56
2023-06-01T13:33:17.495Z,95049.97
2023-06-01T13:35:46.380Z,95055.38
2023-06-01T13:38:14.599Z,95050.91
2023-06-01T13:40:42.919Z,95040.28
2023-06-01T13:43:13.733Z,95044.66
2023-06-01T13:45:42.187Z,95026.88
2023-06-01T13:48:13.719Z,95020.34
2023-06-01T13:50:44.188Z,95020.97
2023-06-01T13:53:12.642Z,95020.84
2023-06-01T13:55:41.099Z,95015.50
2023-06-01T13:58:09.544Z,95016.81
2023-06-01T14:00:39.440Z,94988.53
2023-06-01T14:03:09.069Z,95013.56
2023-06-01T14:05:49.273Z,95015.50
2023-06-01T14:08:20.365Z,95026.00
2023-06-01T14:10:48.610Z,95023.88
2023-06-01T14:13:17.149Z,95019.09
2023-06-01T14:15:46.998Z,95036.63
2023-06-01T14:18:15.320Z,95028.16
2023-06-01T14:20:44.245Z,95048.44
2023-06-01T14:23:13.056Z,95029.94
2023-06-01T14:25:41.416Z,95044.44
2023-06-01T14:28:09.616Z,94946.53
2023-06-01T14:30:38.583Z,95037.66
2023-06-01T14:33:08.346Z,95048.25
2023-06-01T14:35:36.533Z,95045.16
2023-06-01T14:38:04.731Z,95040.13
2023-06-01T14:40:33.368Z,95036.59
2023-06-01T14:43:01.574Z,95034.84
2023-06-01T14:45:29.830Z,95035.78
2023-06-01T14:47:58.014Z,95042.22
2023-06-01T14:50:27.895Z,95039.75
2023-06-01T14:53:00.968Z,95039.47
2023-06-01T14:55:29.641Z,95044.06
2023-06-01T14:57:57.877Z,95016.75
2023-06-01T15:00:29.166Z,95041.31
2023-06-01T15:02:57.582Z,95044.84
2023-06-01T15:05:27.533Z,95047.06
2023-06-01T15:07:55.973Z,95027.69
2023-06-01T15:10:24.110Z,95040.28
2023-06-01T15:12:52.799Z,95041.56
2023-06-01T15:15:21.407Z,95045.13
2023-06-01T15:17:51.823Z,94996.28
2023-06-01T15:20:19.976Z,95038.97
2023-06-01T15:22:49.923Z,95023.38
2023-06-01T15:25:18.377Z,95018.91
2023-06-01T15:27:46.688Z,95021.72
2023-06-01T15:30:15.410Z,95020.75
2023-06-01T15:32:46.238Z,95023.22
2023-06-01T15:35:19.240Z,95021.72
2023-06-01T15:40:17.920Z,95023.22
2023-06-01T15:42:46.280Z,95023.31
2023-06-01T15:45:14.879Z,95017.88
2023-06-01T15:47:43.066Z,94987.59
2023-06-01T15:50:12.074Z,95025.91
2023-06-01T15:52:40.068Z,95024.41
2023-06-01T15:55:09.200Z,95019.44
2023-06-01T15:57:39.027Z,95020.06
2023-06-01T16:00:09.362Z,95020.88
2023-06-01T16:02:39.837Z,95011.72
2023-06-01T16:05:08.728Z,95010.50
2023-06-01T16:07:36.843Z,95012.97
2023-06-01T16:10:05.654Z,95008.75
2023-06-01T16:12:33.891Z,95008.03
2023-06-01T16:15:03.649Z,95007.63
2023-06-01T16:17:35.259Z,95011.63
2023-06-01T16:20:04.104Z,95005.22
2023-06-01T16:22:32.651Z,95004.66
2023-06-01T16:25:00.970Z,95008.88
2023-06-01T16:27:28.998Z,95002.94
2023-06-01T16:29:58.175Z,95004.31
2023-06-01T16:32:28.357Z,95004.47
2023-06-01T16:34:56.602Z,95000.19
2023-06-01T16:37:25.038Z,94998.59
2023-06-01T16:39:53.333Z,95003.84
2023-06-01T16:42:21.669Z,94995.44
2023-06-01T16:44:49.659Z,95000.44
2023-06-01T16:47:17.861Z,95002.59
2023-06-01T16:49:47.735Z,95004.78
2023-06-01T16:52:16.315Z,94995.25
2023-06-01T16:54:44.452Z,95004.88
2023-06-01T16:57:12.564Z,95005.44
2023-06-01T16:59:40.685Z,95002.94
2023-06-01T17:02:09.571Z,95003.72
2023-06-01T17:04:37.912Z,95008.03
2023-06-01T17:07:08.308Z,95010.09
2023-06-01T17:09:36.395Z,95009.72
2023-06-01T17:12:05.342Z,95012.72
2023-06-01T17:14:33.605Z,95009.78
2023-06-01T17:17:02.057Z,95002.53
2023-06-01T17:19:31.121Z,95014.84
2023-06-01T17:21:59.296Z,95009.34
2023-06-01T17:24:29.571Z,94993.16
2023-06-01T17:26:57.519Z,95002.59
2023-06-01T17:29:26.520Z,94996.84
2023-06-01T17:31:54.784Z,94993.41
2023-06-01T17:34:23.032Z,94996.16
2023-06-01T17:36:51.182Z,94988.00
2023-06-01T17:39:22.831Z,94995.00
2023-06-01T17:41:53.394Z,94985.63
2023-06-01T17:44:22.618Z,94991.19
2023-06-01T17:46:50.809Z,94994.16
2023-06-01T17:49:19.399Z,94941.31
2023-06-01T17:51:47.665Z,94996.66
2023-06-01T17:54:15.822Z,94992.25
2023-06-01T17:56:44.111Z,94997.22
2023-06-01T17:59:15.272Z,95003.97
2023-06-01T18:01:43.586Z,95000.25
2023-06-01T18:04:11.703Z,94976.06
2023-06-01T18:06:40.065Z,94989.31
2023-06-01T18:09:08.105Z,95006.03
2023-06-01T18:11:36.926Z,94994.13
2023-06-01T18:14:05.388Z,95019.53
2023-06-01T18:16:35.209Z,95021.28
2023-06-01T18:19:03.453Z,94983.97
2023-06-01T18:21:32.206Z,95012.84
2023-06-01T18:24:00.223Z,95021.88
2023-06-01T18:26:28.658Z,95025.34
2023-06-01T18:28:59.046Z,95037.34
2023-06-01T18:31:27.618Z,94997.00
2023-06-01T18:33:57.319Z,95037.59
2023-06-01T18:36:28.670Z,95035.59
2023-06-01T18:38:57.103Z,95033.59
2023-06-01T18:41:25.863Z,95033.84
2023-06-01T18:43:53.938Z,95031.84
2023-06-01T18:46:22.951Z,95035.09
2023-06-01T18:48:51.427Z,95032.38
2023-06-01T18:51:21.997Z,95035.13
2023-06-01T18:53:50.617Z,95039.63
2023-06-01T18:56:19.316Z,95038.88
2023-06-01T18:58:47.938Z,95046.88
2023-06-01T19:01:19.157Z,95051.34
2023-06-01T19:03:51.560Z,95041.09
2023-06-01T19:06:21.557Z,95057.81
2023-06-01T19:08:49.638Z,94990.59
2023-06-01T19:11:18.182Z,95051.84
2023-06-01T19:13:48.329Z,95043.38
2023-06-01T19:16:21.894Z,95043.88
2023-06-01T19:18:51.753Z,95046.88
2023-06-01T19:21:22.743Z,95049.38
2023-06-01T19:23:53.129Z,95043.91
2023-06-01T19:26:26.604Z,95043.91
2023-06-01T19:29:01.805Z,95044.13
2023-06-01T19:31:34.232Z,95041.38
2023-06-01T19:34:03.784Z,95041.66
2023-06-01T19:36:56.621Z,95042.66
2023-06-01T19:39:36.027Z,95051.13
2023-06-01T19:42:08.646Z,95049.84
2023-06-01T19:44:37.729Z,95035.38
2023-06-01T19:47:08.714Z,95043.31
2023-06-01T19:49:38.771Z,95043.09
2023-06-01T19:52:11.104Z,95026.94
2023-06-01T19:54:40.167Z,95044.03
2023-06-01T19:57:08.868Z,94943.09
2023-06-01T19:59:39.222Z,95022.81
2023-06-01T20:02:09.943Z,95031.28
2023-06-01T20:04:38.335Z,95037.44
2023-06-01T20:07:09.150Z,95047.06
2023-06-01T20:09:37.225Z,95048.88
2023-06-01T20:12:07.348Z,95046.91
2023-06-01T20:14:35.993Z,95040.66
2023-06-01T20:17:04.927Z,95031.34
2023-06-01T20:19:33.909Z,95051.59
2023-06-01T20:22:02.467Z,95049.50
2023-06-01T20:24:33.487Z,95035.00
2023-06-01T20:27:03.605Z,95018.53
2023-06-01T20:29:34.115Z,95059.16
2023-06-01T20:32:03.610Z,95052.22
2023-06-01T20:34:33.809Z,95049.00
2023-06-01T20:37:02.309Z,95025.28
2023-06-01T20:39:32.060Z,95054.66
2023-06-01T20:42:01.235Z,95026.03
2023-06-01T20:44:29.930Z,95050.88
2023-06-01T20:46:58.840Z,95050.66
2023-06-01T20:49:28.910Z,95035.72
2023-06-01T20:51:57.622Z,95051.13
2023-06-01T20:54:28.322Z,95017.50
2023-06-01T20:56:58.993Z,95052.56
2023-06-01T20:59:28.507Z,94959.22
2023-06-01T21:01:58.454Z,95046.78
2023-06-01T21:04:28.491Z,95046.78
2023-06-01T21:06:57.796Z,95046.81
2023-06-01T21:09:26.494Z,95041.31
2023-06-01T21:11:56.388Z,95038.06
2023-06-01T21:14:26.757Z,95038.75
2023-06-01T21:16:54.972Z,95018.94
2023-06-01T21:19:23.429Z,95030.63
2023-06-01T21:21:51.836Z,95045.06
2023-06-01T21:24:20.070Z,95030.84
2023-06-01T21:26:48.411Z,95018.94
2023-06-01T21:29:16.775Z,95025.00
2023-06-01T21:31:46.286Z,95020.25
2023-06-01T21:34:16.853Z,95012.50
2023-06-01T21:36:45.168Z,95011.50
2023-06-01T21:39:13.708Z,95007.19
2023-06-01T21:41:42.390Z,95018.94
2023-06-01T21:44:10.855Z,95016.97
2023-06-01T21:46:39.128Z,95030.38
2023-06-01T21:49:09.493Z,95011.75
2023-06-01T21:51:38.077Z,94961.75
2023-06-01T21:54:07.064Z,95013.78
2023-06-01T21:56:37.111Z,95006.28
2023-06-01T21:59:06.280Z,95015.56
2023-06-01T22:01:34.721Z,95020.94
2023-06-01T22:04:03.167Z,95012.03
2023-06-01T22:06:32.978Z,95008.81
2023-06-01T22:09:01.281Z,95009.72
2023-06-01T22:11:29.706Z,95027.16
2023-06-01T22:13:58.206Z,95029.81
2023-06-01T22:16:26.611Z,95028.84
2023-06-01T22:18:55.010Z,95028.84
2023-06-01T22:21:23.822Z,95032.78
2023-06-01T22:23:53.876Z,95033.19
2023-06-01T22:26:22.201Z,95030.69
2023-06-01T22:28:50.817Z,95023.38
2023-06-01T22:31:19.041Z,95023.53
2023-06-01T22:33:47.355Z,95005.91
2023-06-01T22:36:15.821Z,95026.34
2023-06-01T22:38:44.872Z,95014.06
2023-06-01T22:41:14.676Z,95015.72
2023-06-01T22:43:43.263Z,95026.00
2023-06-01T22:46:11.550Z,95021.50
2023-06-01T22:48:40.354Z,94993.59
2023-06-01T22:51:08.477Z,95023.91
2023-06-01T22:53:37.011Z,95014.34
2023-06-01T22:56:06.794Z,95014.78
2023-06-01T22:58:37.081Z,95010.84
2023-06-01T23:01:05.967Z,95006.25
2023-06-01T23:03:34.540Z,95009.44
2023-06-01T23:06:04.807Z,95026.00
2023-06-01T23:08:33.813Z,95023.56
2023-06-01T23:11:02.669Z,95031.47
2023-06-01T23:13:36.703Z,94974.13
2023-06-01T23:16:08.124Z,95013.72
2023-06-01T23:18:37.117Z,95020.56
2023-06-01T23:21:05.651Z,94960.88
2023-06-01T23:23:34.546Z,95013.38
2023-06-01T23:26:03.289Z,95018.66
2023-06-01T23:28:31.671Z,95016.69
2023-06-01T23:31:00.154Z,95011.75
2023-06-01T23:33:31.035Z,95006.09
2023-06-01T23:35:59.170Z,95012.34
2023-06-01T23:38:30.485Z,95012.34
2023-06-01T23:40:59.518Z,95016.03
2023-06-01T23:43:28.103Z,95010.78
2023-06-01T23:45:59.044Z,95004.09
2023-06-01T23:48:27.782Z,95010.06
2023-06-01T23:50:57.508Z,94995.69
2023-06-01T23:53:25.786Z,94983.72
2023-06-01T23:55:54.121Z,94995.13
2023-06-01T23:58:22.665Z,95006.31
